createdAt,value
2018-01-26T00:02:09.505Z,75.43
2018-01-26T00:04:36.935Z,68.30
2018-01-26T00:07:05.132Z,79.37
2018-01-26T00:09:32.568Z,74.20
2018-01-26T00:12:00.793Z,77.70
2018-01-26T00:14:28.354Z,80.50
2018-01-26T00:16:55.799Z,74.43
2018-01-26T00:19:23.271Z,76.23
2018-01-26T00:21:50.726Z,71.83
2018-01-26T00:24:18.493Z,74.63
2018-01-26T00:26:45.916Z,75.63
2018-01-26T00:29:13.343Z,89.60
2018-01-26T00:31:41.584Z,79.07
2018-01-26T00:34:09.032Z,82.20
2018-01-26T00:36:36.488Z,79.60
2018-01-26T00:39:04.163Z,74.97
2018-01-26T00:41:31.608Z,87.17
2018-01-26T00:43:59.044Z,88.17
2018-01-26T00:46:26.528Z,75.43
2018-01-26T00:48:53.961Z,75.60
2018-01-26T00:51:21.444Z,85.33
2018-01-26T00:53:48.896Z,80.87
2018-01-26T00:56:16.323Z,76.17
2018-01-26T00:58:43.751Z,82.60
2018-01-26T01:01:11.477Z,84.50
2018-01-26T01:03:38.928Z,78.93
2018-01-26T01:06:06.359Z,94.73
2018-01-26T01:08:33.866Z,88.93
2018-01-26T01:11:01.401Z,97.57
2018-01-26T01:13:28.860Z,99.23
2018-01-26T01:15:56.626Z,91.83
2018-01-26T01:18:24.088Z,71.67
2018-01-26T01:20:51.544Z,108.13
2018-01-26T01:23:18.998Z,79.20
2018-01-26T01:25:46.452Z,77.13
2018-01-26T01:28:13.905Z,95.80
2018-01-26T01:30:41.669Z,84.07
2018-01-26T01:33:09.138Z,85.83
2018-01-26T01:35:36.529Z,85.97
2018-01-26T01:38:04.736Z,91.80
2018-01-26T01:40:32.221Z,100.70
2018-01-26T01:42:59.706Z,119.30
2018-01-26T01:45:27.392Z,120.57
2018-01-26T01:47:55.608Z,90.50
2018-01-26T01:50:23.020Z,109.50
2018-01-26T01:52:51.256Z,102.30
2018-01-26T01:55:18.688Z,116.37
2018-01-26T01:57:46.158Z,81.77
2018-01-26T02:00:13.610Z,95.93
2018-01-26T02:02:41.045Z,113.90
2018-01-26T02:05:08.627Z,100.77
2018-01-26T02:07:36.396Z,110.87
2018-01-26T02:10:03.828Z,111.07
2018-01-26T02:12:31.260Z,118.20
2018-01-26T02:14:59.516Z,102.27
2018-01-26T02:17:27.044Z,107.60
2018-01-26T02:19:54.480Z,115.13
2018-01-26T02:22:21.915Z,122.80
2018-01-26T02:24:50.144Z,130.97
2018-01-26T02:27:17.592Z,156.70
2018-01-26T02:29:45.040Z,161.23
2018-01-26T02:32:12.476Z,139.90
2018-01-26T02:34:39.904Z,154.17
2018-01-26T02:37:07.636Z,152.53
2018-01-26T02:39:35.073Z,177.50
2018-01-26T02:42:02.544Z,152.23
2018-01-26T02:44:30.126Z,181.33
2018-01-26T02:46:57.556Z,167.97
2018-01-26T02:49:25.012Z,158.40
2018-01-26T02:51:52.784Z,163.60
2018-01-26T02:54:20.231Z,171.00
2018-01-26T02:56:47.683Z,164.70
2018-01-26T02:59:15.129Z,165.73
2018-01-26T03:01:42.560Z,133.00
2018-01-26T03:04:10.755Z,134.90
2018-01-26T03:06:38.435Z,137.87
2018-01-26T03:09:05.884Z,160.03
2018-01-26T03:11:33.363Z,156.57
2018-01-26T03:14:00.815Z,233.77
2018-01-26T03:16:28.272Z,182.57
2018-01-26T03:18:55.703Z,319.37
2018-01-26T03:21:23.156Z,174.97
2018-01-26T03:23:50.581Z,217.23
2018-01-26T03:26:18.096Z,243.10
2018-01-26T03:28:45.861Z,185.03
2018-01-26T03:31:13.297Z,197.37
2018-01-26T03:33:40.721Z,165.00
2018-01-26T03:36:08.163Z,179.77
2018-01-26T03:38:35.637Z,152.60
2018-01-26T03:41:03.869Z,159.20
2018-01-26T03:43:31.544Z,203.03
2018-01-26T03:45:58.996Z,245.83
2018-01-26T03:48:26.425Z,213.00
2018-01-26T03:50:53.884Z,272.43
2018-01-26T03:53:21.308Z,272.10
2018-01-26T03:55:49.532Z,236.63
2018-01-26T03:58:17.304Z,238.00
2018-01-26T04:00:44.756Z,314.63
2018-01-26T04:03:12.183Z,313.50
2018-01-26T04:05:39.656Z,376.10
2018-01-26T04:08:07.100Z,480.90
2018-01-26T04:10:34.673Z,520.37
2018-01-26T04:13:02.449Z,421.73
2018-01-26T04:15:29.916Z,430.73
2018-01-26T04:17:57.361Z,460.93
2018-01-26T04:20:24.815Z,508.20
2018-01-26T04:22:52.280Z,501.73
2018-01-26T04:25:19.760Z,505.87
2018-01-26T04:27:47.494Z,422.77
2018-01-26T04:30:14.982Z,483.47
2018-01-26T04:32:42.430Z,468.13
2018-01-26T04:35:09.971Z,447.23
2018-01-26T04:37:37.418Z,500.70
2018-01-26T04:40:04.839Z,478.67
2018-01-26T04:42:33.069Z,505.63
2018-01-26T04:45:00.520Z,435.63
2018-01-26T04:47:27.978Z,388.67
2018-01-26T04:49:55.439Z,381.07
2018-01-26T04:52:22.884Z,330.10
2018-01-26T04:54:50.343Z,315.23
2018-01-26T04:57:17.796Z,312.20
2018-01-26T04:59:45.232Z,326.13
2018-01-26T05:02:12.665Z,307.57
2018-01-26T05:04:40.871Z,319.17
2018-01-26T05:07:08.343Z,289.53
2018-01-26T05:09:35.804Z,294.63
2018-01-26T05:12:03.260Z,301.53
2018-01-26T05:14:30.689Z,318.47
2018-01-26T05:16:58.116Z,277.20
2018-01-26T05:19:25.641Z,279.83
2018-01-26T05:21:53.079Z,262.50
2018-01-26T05:24:20.556Z,286.33
2018-01-26T05:26:48.320Z,310.37
2018-01-26T05:29:15.780Z,276.30
2018-01-26T05:31:43.217Z,277.83
2018-01-26T05:34:10.655Z,285.17
2018-01-26T05:36:38.088Z,243.70
2018-01-26T05:39:06.292Z,270.87
2018-01-26T05:41:34.081Z,255.27
2018-01-26T05:44:01.570Z,261.23
2018-01-26T05:46:28.944Z,260.57
2018-01-26T05:48:57.160Z,243.67
2018-01-26T05:51:24.590Z,221.27
2018-01-26T05:53:52.802Z,251.17
2018-01-26T05:56:20.253Z,248.47
2018-01-26T05:58:47.716Z,240.93
2018-01-26T06:01:15.139Z,240.93
2018-01-26T06:03:42.588Z,210.10
2018-01-26T06:06:10.803Z,222.23
2018-01-26T06:08:38.242Z,210.70
2018-01-26T06:11:05.808Z,232.13
2018-01-26T06:13:33.271Z,212.30
2018-01-26T06:16:00.708Z,211.63
2018-01-26T06:18:28.184Z,208.30
2018-01-26T06:20:55.620Z,196.30
2018-01-26T06:23:23.044Z,180.13
2018-01-26T06:25:51.252Z,257.17
2018-01-26T06:28:18.688Z,246.03
2018-01-26T06:30:46.880Z,297.83
2018-01-26T06:33:14.716Z,190.90
2018-01-26T06:35:42.144Z,222.03
2018-01-26T06:38:09.579Z,359.80
2018-01-26T06:40:37.044Z,337.23
2018-01-26T06:43:04.504Z,302.13
2018-01-26T06:45:31.937Z,377.83
2018-01-26T06:47:59.719Z,285.37
2018-01-26T06:50:27.180Z,338.60
2018-01-26T06:52:54.681Z,309.03
2018-01-26T06:55:22.891Z,366.07
2018-01-26T06:57:50.327Z,293.77
2018-01-26T07:00:18.543Z,212.53
2018-01-26T07:02:45.992Z,229.60
2018-01-26T07:05:13.451Z,286.07
2018-01-26T07:07:40.888Z,228.07
2018-01-26T07:10:08.378Z,212.07
2018-01-26T07:12:35.809Z,257.67
2018-01-26T07:15:03.238Z,241.10
2018-01-26T07:17:31.449Z,270.37
2018-01-26T07:19:58.910Z,207.37
2018-01-26T07:22:26.372Z,254.77
2018-01-26T07:24:53.820Z,200.30
2018-01-26T07:27:21.284Z,239.63
2018-01-26T07:29:48.740Z,291.27
2018-01-26T07:32:16.224Z,384.10
2018-01-26T07:34:43.660Z,422.87
2018-01-26T07:37:11.107Z,727.03
2018-01-26T07:39:38.540Z,915.13
2018-01-26T07:42:06.032Z,916.73
2018-01-26T07:44:33.497Z,993.73
2018-01-26T07:47:01.052Z,884.90
2018-01-26T07:49:28.496Z,802.30
2018-01-26T07:51:55.966Z,998.63
2018-01-26T07:54:23.424Z,914.47
2018-01-26T07:56:50.856Z,779.60
2018-01-26T07:59:18.337Z,1024.57
2018-01-26T08:01:45.892Z,879.43
2018-01-26T08:04:13.327Z,908.17
2018-01-26T08:06:40.764Z,838.50
2018-01-26T08:09:08.980Z,781.43
2018-01-26T08:11:36.412Z,836.97
2018-01-26T08:14:03.896Z,818.67
2018-01-26T08:16:31.356Z,735.53
2018-01-26T08:18:58.793Z,722.70
2018-01-26T08:21:26.223Z,671.97
2018-01-26T08:23:53.680Z,699.27
2018-01-26T08:26:21.887Z,698.23
2018-01-26T08:28:49.324Z,697.20
2018-01-26T08:31:16.812Z,626.33
2018-01-26T08:33:44.274Z,620.07
2018-01-26T08:36:11.703Z,353.50
2018-01-26T08:38:39.408Z,391.10
2018-01-26T08:41:06.856Z,408.67
2018-01-26T08:43:34.328Z,485.87
2018-01-26T08:46:01.754Z,484.07
2018-01-26T08:48:29.553Z,375.17
2018-01-26T08:50:56.967Z,565.40
2018-01-26T08:53:24.440Z,417.57
2018-01-26T08:55:51.872Z,376.77
2018-01-26T08:58:19.357Z,370.60
2018-01-26T09:00:46.800Z,222.47
2018-01-26T09:03:14.238Z,368.13
2018-01-26T09:05:42.436Z,270.67
2018-01-26T09:08:09.887Z,268.80
2018-01-26T09:10:37.359Z,218.20
2018-01-26T09:13:04.820Z,228.17
2018-01-26T09:15:32.382Z,222.07
2018-01-26T09:17:59.874Z,122.03
2018-01-26T09:20:27.308Z,186.93
2018-01-26T09:22:54.900Z,202.30
2018-01-26T09:25:23.092Z,212.00
2018-01-26T09:27:50.528Z,175.67
2018-01-26T09:30:18.742Z,139.87
2018-01-26T09:32:46.200Z,190.77
2018-01-26T09:35:13.608Z,144.97
2018-01-26T09:37:41.844Z,187.57
2018-01-26T09:40:09.305Z,170.03
2018-01-26T09:42:36.731Z,164.87
2018-01-26T09:45:04.285Z,228.23
2018-01-26T09:47:31.692Z,169.03
2018-01-26T09:49:59.138Z,175.47
2018-01-26T09:52:26.898Z,172.20
2018-01-26T09:54:55.173Z,186.40
2018-01-26T09:57:22.654Z,165.00
2018-01-26T09:59:50.388Z,194.13
2018-01-26T10:02:17.849Z,176.90
2018-01-26T10:04:45.283Z,141.57
2018-01-26T10:07:12.772Z,164.30
2018-01-26T10:09:40.220Z,130.70
2018-01-26T10:12:07.652Z,128.40
2018-01-26T10:14:35.133Z,118.17
2018-01-26T10:17:02.592Z,130.53
2018-01-26T10:19:30.045Z,131.53
2018-01-26T10:21:57.493Z,120.73
2018-01-26T10:24:24.972Z,118.30
2018-01-26T10:26:52.422Z,110.23
2018-01-26T10:29:19.893Z,119.77
2018-01-26T10:31:47.332Z,116.57
2018-01-26T10:34:14.813Z,105.47
2018-01-26T10:36:42.251Z,108.63
2018-01-26T10:39:09.676Z,105.13
2018-01-26T10:41:37.115Z,121.33
2018-01-26T10:44:05.563Z,100.93
2018-01-26T10:46:33.016Z,120.03
2018-01-26T10:49:00.557Z,111.23
2018-01-26T10:51:28.003Z,113.73
2018-01-26T10:53:55.463Z,113.20
2018-01-26T10:56:22.932Z,109.33
2018-01-26T10:58:50.374Z,114.10
2018-01-26T11:01:17.835Z,114.33
2018-01-26T11:03:45.272Z,109.43
2018-01-26T11:06:12.720Z,109.90
2018-01-26T11:08:40.919Z,118.10
2018-01-26T11:11:08.352Z,124.93
2018-01-26T11:13:36.563Z,114.97
2018-01-26T11:16:04.028Z,104.90
2018-01-26T11:18:31.467Z,101.27
2018-01-26T11:20:59.243Z,102.47
2018-01-26T11:23:26.676Z,99.50
2018-01-26T11:25:54.255Z,94.23
2018-01-26T11:28:21.677Z,107.90
2018-01-26T11:30:49.109Z,107.20
2018-01-26T11:33:16.532Z,100.70
2018-01-26T11:35:43.985Z,102.67
2018-01-26T11:38:11.416Z,104.60
2018-01-26T11:40:38.905Z,111.73
2018-01-26T11:43:06.343Z,110.83
2018-01-26T11:45:33.785Z,103.63
2018-01-26T11:48:01.271Z,112.03
2018-01-26T11:50:28.729Z,112.27
2018-01-26T11:52:56.186Z,108.50
2018-01-26T11:55:23.640Z,122.90
2018-01-26T11:57:51.130Z,98.63
2018-01-26T12:00:18.553Z,111.00
2018-01-26T12:02:46.012Z,114.97
2018-01-26T12:05:13.574Z,112.93
2018-01-26T12:07:41.028Z,117.43
2018-01-26T12:10:08.460Z,101.80
2018-01-26T12:12:35.941Z,103.33
2018-01-26T12:15:03.372Z,104.30
2018-01-26T12:17:30.852Z,90.33
2018-01-26T12:19:58.625Z,101.13
2018-01-26T12:22:26.052Z,85.23
2018-01-26T12:24:53.482Z,83.43
2018-01-26T12:27:21.693Z,89.27
2018-01-26T12:29:49.130Z,96.43
2018-01-26T12:32:17.323Z,85.57
2018-01-26T12:34:44.796Z,101.73
2018-01-26T12:37:12.234Z,89.90
2018-01-26T12:39:39.669Z,80.27
2018-01-26T12:42:07.990Z,88.10
2018-01-26T12:44:35.420Z,77.53
2018-01-26T12:47:02.844Z,83.73
2018-01-26T12:49:31.064Z,87.60
2018-01-26T12:51:58.528Z,84.20
2018-01-26T12:54:25.969Z,76.70
2018-01-26T12:56:53.664Z,76.97
2018-01-26T12:59:21.088Z,74.33
2018-01-26T13:01:48.573Z,83.97
2018-01-26T13:04:16.018Z,81.77
2018-01-26T13:06:43.444Z,64.00
2018-01-26T13:09:11.643Z,71.37
2018-01-26T13:11:39.116Z,61.90
2018-01-26T13:14:06.567Z,66.17
2018-01-26T13:16:33.996Z,63.60
2018-01-26T13:19:01.792Z,57.47
2018-01-26T13:21:29.253Z,60.67
2018-01-26T13:23:56.695Z,64.10
2018-01-26T13:26:24.152Z,62.63
2018-01-26T13:28:51.556Z,60.50
2018-01-26T13:31:19.751Z,57.47
2018-01-26T13:33:47.958Z,65.33
2018-01-26T13:36:15.424Z,61.63
2018-01-26T13:38:42.859Z,57.70
2018-01-26T13:41:10.300Z,58.67
2018-01-26T13:43:38.605Z,54.53
2018-01-26T13:46:06.012Z,45.50
2018-01-26T13:48:33.469Z,53.50
2018-01-26T13:51:00.984Z,46.17
2018-01-26T13:53:28.410Z,46.93
2018-01-26T13:55:55.859Z,49.40
2018-01-26T13:58:24.065Z,43.63
2018-01-26T14:00:51.469Z,49.63
2018-01-26T14:03:18.989Z,41.83
2018-01-26T14:05:46.444Z,40.70
2018-01-26T14:08:13.892Z,44.63
2018-01-26T14:10:41.669Z,46.03
2018-01-26T14:13:09.135Z,45.57
2018-01-26T14:15:36.603Z,44.43
2018-01-26T14:18:04.046Z,50.97
2018-01-26T14:20:31.492Z,40.60
2018-01-26T14:22:58.930Z,49.60
2018-01-26T14:25:26.380Z,37.27
2018-01-26T14:27:53.812Z,42.13
2018-01-26T14:30:22.008Z,36.90
2018-01-26T14:32:49.552Z,45.73
2018-01-26T14:35:17.748Z,48.53
2018-01-26T14:37:45.176Z,44.63
2018-01-26T14:40:13.380Z,46.70
2018-01-26T14:42:40.893Z,50.63
2018-01-26T14:45:08.292Z,40.63
2018-01-26T14:47:35.728Z,47.37
2018-01-26T14:50:03.924Z,41.67
2018-01-26T14:52:31.356Z,49.23
2018-01-26T14:54:59.572Z,49.07
2018-01-26T14:57:26.999Z,44.93
2018-01-26T14:59:55.184Z,48.70
2018-01-26T15:02:22.872Z,56.60
2018-01-26T15:04:50.332Z,53.00
2018-01-26T15:07:17.760Z,60.37
2018-01-26T15:09:45.248Z,47.03
2018-01-26T15:12:12.682Z,64.23
2018-01-26T15:14:40.109Z,68.60
2018-01-26T15:17:08.350Z,65.97
2018-01-26T15:19:35.793Z,75.47
2018-01-26T15:22:03.208Z,69.07
2018-01-26T15:24:31.411Z,74.77
2018-01-26T15:26:58.835Z,74.83
2018-01-26T15:29:27.054Z,77.90
2018-01-26T15:31:54.812Z,71.37
2018-01-26T15:34:22.239Z,78.07
2018-01-26T15:36:49.672Z,73.97
2018-01-26T15:39:17.319Z,74.50
2018-01-26T15:41:45.540Z,75.33
2018-01-26T15:44:12.960Z,65.17
2018-01-26T15:46:40.406Z,72.20
2018-01-26T15:49:07.832Z,69.57
2018-01-26T15:51:35.292Z,74.83
2018-01-26T15:54:02.844Z,83.03
2018-01-26T15:56:30.329Z,75.10
2018-01-26T15:58:57.868Z,74.70
2018-01-26T16:01:25.324Z,80.87
2018-01-26T16:03:52.760Z,82.97
2018-01-26T16:06:20.236Z,77.97
2018-01-26T16:08:47.676Z,95.33
2018-01-26T16:11:15.157Z,85.23
2018-01-26T16:13:42.612Z,88.47
2018-01-26T16:16:10.040Z,95.30
2018-01-26T16:18:37.464Z,88.50
2018-01-26T16:21:04.988Z,89.33
2018-01-26T16:23:32.430Z,94.40
2018-01-26T16:25:59.896Z,99.23
2018-01-26T16:28:27.351Z,85.30
2018-01-26T16:30:54.788Z,96.93
2018-01-26T16:33:22.276Z,91.20
2018-01-26T16:35:49.715Z,95.67
2018-01-26T16:38:17.184Z,90.33
2018-01-26T16:40:44.619Z,102.80
2018-01-26T16:43:12.052Z,100.53
2018-01-26T16:45:40.380Z,98.50
2018-01-26T16:48:07.807Z,109.10
2018-01-26T16:50:35.304Z,98.20
2018-01-26T16:53:02.752Z,113.00
2018-01-26T16:55:30.172Z,115.77
2018-01-26T16:57:57.605Z,108.30
2018-01-26T17:00:25.117Z,110.47
2018-01-26T17:02:52.580Z,106.43
2018-01-26T17:05:20.012Z,99.33
2018-01-26T17:07:47.478Z,118.97
2018-01-26T17:10:15.029Z,133.40
2018-01-26T17:12:42.508Z,127.87
2018-01-26T17:15:09.948Z,126.67
2018-01-26T17:17:37.416Z,134.20
2018-01-26T17:20:04.876Z,131.00
2018-01-26T17:22:32.323Z,142.37
2018-01-26T17:24:59.777Z,132.53
2018-01-26T17:27:27.256Z,170.90
2018-01-26T17:29:55.036Z,149.50
2018-01-26T17:32:22.469Z,155.90
2018-01-26T17:34:49.931Z,158.10
2018-01-26T17:37:17.377Z,157.67
2018-01-26T17:39:44.856Z,157.30
2018-01-26T17:42:12.276Z,148.97
2018-01-26T17:44:39.740Z,153.90
2018-01-26T17:47:07.164Z,167.27
2018-01-26T17:49:35.375Z,165.07
2018-01-26T17:52:03.060Z,164.80
2018-01-26T17:54:30.499Z,164.90
2018-01-26T17:56:57.934Z,163.83
2018-01-26T17:59:25.377Z,140.77
2018-01-26T18:01:53.588Z,158.27
2018-01-26T18:04:21.015Z,150.93
2018-01-26T18:06:48.461Z,155.23
2018-01-26T18:09:16.654Z,151.10
2018-01-26T18:11:44.083Z,168.17
2018-01-26T18:14:12.298Z,166.57
2018-01-26T18:16:39.752Z,157.00
2018-01-26T18:19:07.223Z,167.20
2018-01-26T18:21:34.696Z,169.67
2018-01-26T18:24:02.173Z,161.00
2018-01-26T18:26:29.629Z,166.47
2018-01-26T18:28:57.364Z,164.57
2018-01-26T18:31:24.820Z,183.63
2018-01-26T18:33:52.254Z,172.47
2018-01-26T18:36:19.713Z,158.77
2018-01-26T18:38:47.162Z,164.30
2018-01-26T18:41:15.368Z,174.07
2018-01-26T18:43:43.144Z,190.97
2018-01-26T18:46:10.618Z,184.60
2018-01-26T18:48:37.991Z,182.53
2018-01-26T18:51:06.227Z,187.73
2018-01-26T18:53:33.704Z,194.83
2018-01-26T18:56:01.135Z,164.13
2018-01-26T18:58:28.585Z,161.13
2018-01-26T19:00:56.050Z,162.17
2018-01-26T19:03:23.515Z,156.20
2018-01-26T19:05:51.072Z,148.97
2018-01-26T19:08:18.524Z,154.70
2018-01-26T19:10:45.974Z,144.23
2018-01-26T19:13:13.421Z,154.17
2018-01-26T19:15:40.863Z,156.50
2018-01-26T19:18:08.287Z,160.57
2018-01-26T19:20:37.544Z,147.63
2018-01-26T19:23:05.014Z,160.60
2018-01-26T19:25:32.451Z,146.67
2018-01-26T19:27:59.915Z,148.17
2018-01-26T19:30:27.373Z,151.53
2018-01-26T19:32:54.851Z,142.50
2018-01-26T19:35:22.300Z,162.40
2018-01-26T19:37:49.743Z,157.37
2018-01-26T19:40:17.298Z,152.13
2018-01-26T19:42:44.764Z,160.13
2018-01-26T19:45:12.198Z,174.80
2018-01-26T19:47:39.638Z,163.63
2018-01-26T19:50:07.846Z,155.10
2018-01-26T19:52:35.326Z,159.93
2018-01-26T19:55:02.756Z,164.97
2018-01-26T19:57:30.196Z,170.27
2018-01-26T19:59:57.628Z,147.53
2018-01-26T20:02:25.831Z,140.20
2018-01-26T20:05:10.888Z,150.80
2018-01-26T20:07:42.288Z,144.53
2018-01-26T20:10:09.840Z,155.37
2018-01-26T20:12:43.056Z,146.77
2018-01-26T20:15:10.588Z,153.77
2018-01-26T20:17:38.060Z,158.27
2018-01-26T20:20:05.597Z,134.07
2018-01-26T20:22:33.064Z,165.67
2018-01-26T20:25:00.517Z,157.77
2018-01-26T20:27:27.976Z,157.13
2018-01-26T20:29:55.418Z,160.83
2018-01-26T20:32:22.879Z,160.20
2018-01-26T20:34:50.648Z,162.30
2018-01-26T20:37:18.108Z,164.20
2018-01-26T20:39:45.537Z,162.30
2018-01-26T20:42:13.000Z,145.67
2018-01-26T20:44:40.432Z,162.73
2018-01-26T20:47:08.653Z,156.03
2018-01-26T20:49:36.101Z,163.87
2018-01-26T20:52:03.569Z,156.33
2018-01-26T20:54:31.009Z,146.00
2018-01-26T20:56:58.480Z,165.80
2018-01-26T20:59:25.932Z,139.07
2018-01-26T21:01:53.368Z,156.67
2018-01-26T21:04:21.159Z,157.10
2018-01-26T21:06:48.588Z,160.53
2018-01-26T21:09:16.072Z,152.57
2018-01-26T21:11:43.520Z,162.37
2018-01-26T21:14:10.948Z,156.67
2018-01-26T21:16:39.160Z,163.13
2018-01-26T21:19:06.608Z,146.97
2018-01-26T21:21:34.040Z,149.50
2018-01-26T21:24:02.259Z,157.93
2018-01-26T21:26:30.027Z,149.77
2018-01-26T21:28:57.461Z,139.50
2018-01-26T21:31:24.929Z,155.73
2018-01-26T21:33:52.375Z,155.10
2018-01-26T21:36:19.806Z,160.17
2018-01-26T21:38:47.995Z,156.30
2018-01-26T21:41:15.440Z,164.47
2018-01-26T21:43:42.880Z,159.40
2018-01-26T21:46:11.090Z,160.23
2018-01-26T21:48:38.544Z,176.20
2018-01-26T21:51:05.972Z,172.13
2018-01-26T21:53:34.196Z,164.20
2018-01-26T21:56:01.632Z,152.47
2018-01-26T21:58:29.068Z,165.73
2018-01-26T22:00:57.276Z,146.00
2018-01-26T22:03:24.730Z,162.90
2018-01-26T22:05:52.144Z,153.30
2018-01-26T22:08:20.370Z,153.27
2018-01-26T22:10:47.818Z,149.20
2018-01-26T22:13:15.289Z,156.70
2018-01-26T22:15:42.720Z,157.10
2018-01-26T22:18:10.188Z,145.07
2018-01-26T22:20:37.619Z,146.40
2018-01-26T22:23:05.821Z,145.07
2018-01-26T22:25:33.380Z,133.00
2018-01-26T22:28:00.788Z,152.33
2018-01-26T22:30:28.230Z,129.80
2018-01-26T22:32:55.665Z,147.00
2018-01-26T22:35:23.117Z,172.37
2018-01-26T22:37:50.576Z,181.33
2018-01-26T22:40:18.340Z,161.00
2018-01-26T22:42:45.792Z,134.27
2018-01-26T22:45:13.320Z,164.50
2018-01-26T22:47:41.122Z,152.97
2018-01-26T22:50:08.550Z,154.43
2018-01-26T22:52:35.987Z,168.40
2018-01-26T22:55:04.300Z,151.93
2018-01-26T22:57:31.714Z,152.10
2018-01-26T22:59:59.936Z,156.40
2018-01-26T23:02:27.723Z,148.63
2018-01-26T23:04:55.163Z,147.10
2018-01-26T23:07:22.611Z,175.27
2018-01-26T23:09:50.049Z,169.37
2018-01-26T23:12:17.476Z,171.27
2018-01-26T23:14:45.673Z,157.77
2018-01-26T23:17:13.181Z,169.17
2018-01-26T23:19:40.600Z,146.50
2018-01-26T23:22:08.069Z,160.13
2018-01-26T23:24:35.527Z,179.43
2018-01-26T23:27:02.952Z,153.33
2018-01-26T23:29:31.155Z,149.67
2018-01-26T23:31:58.836Z,152.50
2018-01-26T23:34:26.291Z,164.10
2018-01-26T23:36:53.756Z,151.63
2018-01-26T23:39:21.602Z,151.77
2018-01-26T23:41:49.081Z,148.90
2018-01-26T23:44:16.620Z,143.63
2018-01-26T23:46:44.436Z,154.00
2018-01-26T23:49:12.674Z,150.73
2018-01-26T23:51:40.128Z,165.53
2018-01-26T23:54:07.700Z,158.47
2018-01-26T23:56:35.138Z,163.00
2018-01-26T23:59:02.601Z,162.83
